createdAt,value
2023-03-29T00:00:40.726Z,98711.39
2023-03-29T00:01:50.363Z,98707.75
2023-03-29T00:04:17.755Z,98718.00
2023-03-29T00:05:27.004Z,98725.09
2023-03-29T00:07:53.391Z,98728.86
2023-03-29T00:10:25.916Z,98719.07
2023-03-29T00:11:35.264Z,98706.19
2023-03-29T00:13:59.951Z,98696.62
2023-03-29T00:16:26.425Z,98712.87
2023-03-29T00:17:36.242Z,98728.73
2023-03-29T00:18:46.252Z,98721.05
2023-03-29T00:19:55.694Z,98717.45
2023-03-29T00:22:22.857Z,98705.05
2023-03-29T00:23:32.237Z,98721.27
2023-03-29T00:24:41.505Z,98708.93
2023-03-29T00:27:06.656Z,98714.88
2023-03-29T00:29:33.927Z,98720.19
2023-03-29T00:31:58.637Z,98698.67
2023-03-29T00:33:09.615Z,98726.47
2023-03-29T00:35:35.602Z,98746.99
2023-03-29T00:38:00.002Z,98738.43
2023-03-29T00:39:09.634Z,98738.14
2023-03-29T00:41:35.481Z,98734.61
2023-03-29T00:44:04.209Z,98733.39
2023-03-29T00:46:36.229Z,98725.83
2023-03-29T00:49:15.583Z,98747.55
2023-03-29T00:50:31.597Z,98745.45
2023-03-29T00:53:08.985Z,98741.41
2023-03-29T00:55:38.981Z,98764.38
2023-03-29T00:56:51.792Z,98763.37
2023-03-29T00:58:04.152Z,98764.92
2023-03-29T01:00:52.810Z,98773.16
2023-03-29T01:03:26.853Z,98787.01
2023-03-29T01:04:46.456Z,98801.54
2023-03-29T01:07:23.232Z,98818.96
2023-03-29T01:11:25.301Z,98816.95
2023-03-29T01:14:00.945Z,98821.69
2023-03-29T01:15:15.392Z,98816.55
2023-03-29T01:17:45.735Z,98826.36
2023-03-29T01:20:42.046Z,98842.09
2023-03-29T01:24:58.376Z,98841.60
2023-03-29T01:26:23.312Z,98839.36
2023-03-29T01:29:04.075Z,98838.83
2023-03-29T01:31:37.508Z,98833.53
2023-03-29T01:34:15.118Z,98834.08
2023-03-29T01:35:34.156Z,98842.37
2023-03-29T01:37:03.961Z,98843.86
2023-03-29T01:39:38.128Z,98835.38
2023-03-29T01:42:13.619Z,98837.80
2023-03-29T01:45:17.020Z,98842.69
2023-03-29T01:48:17.138Z,98825.52
2023-03-29T01:49:27.804Z,98850.08
2023-03-29T01:50:54.591Z,98840.91
2023-03-29T01:55:08.490Z,98862.61
2023-03-29T01:56:26.375Z,98877.92
2023-03-29T01:58:57.758Z,98856.55
2023-03-29T02:01:31.987Z,98867.66
2023-03-29T02:04:04.151Z,98884.17
2023-03-29T02:05:17.043Z,98889.78
2023-03-29T02:07:46.996Z,98886.73
2023-03-29T02:08:57.806Z,98900.16
2023-03-29T02:11:26.878Z,98896.07
2023-03-29T02:14:10.643Z,98897.08
2023-03-29T02:16:38.478Z,98910.14
2023-03-29T02:19:07.838Z,98913.83
2023-03-29T02:21:51.222Z,98914.19
2023-03-29T02:23:18.625Z,98921.36
2023-03-29T02:25:54.043Z,98916.95
2023-03-29T02:28:22.697Z,98928.77
2023-03-29T02:29:33.851Z,98934.10
2023-03-29T02:31:04.873Z,98916.28
2023-03-29T02:35:19.788Z,98924.52
2023-03-29T02:38:00.236Z,98919.48
2023-03-29T02:39:14.590Z,98934.10
2023-03-29T02:42:03.634Z,98918.08
2023-03-29T02:44:36.000Z,98926.33
2023-03-29T02:47:08.478Z,98921.76
2023-03-29T02:49:36.360Z,98930.34
2023-03-29T02:52:17.127Z,98919.32
2023-03-29T02:54:55.777Z,98921.44
2023-03-29T02:57:42.978Z,98922.05
2023-03-29T03:00:09.677Z,98935.52
2023-03-29T03:02:37.081Z,98937.00
2023-03-29T03:03:50.969Z,98937.31
2023-03-29T03:06:14.950Z,98918.80
2023-03-29T03:07:24.866Z,98919.80
2023-03-29T03:09:52.585Z,98917.80
2023-03-29T03:11:03.059Z,98935.75
2023-03-29T03:12:13.251Z,98933.02
2023-03-29T03:14:37.463Z,98932.53
2023-03-29T03:15:48.929Z,98931.61
2023-03-29T03:16:58.958Z,98928.17
2023-03-29T03:19:25.489Z,98929.38
2023-03-29T03:21:51.949Z,98944.24
2023-03-29T03:24:18.944Z,98943.84
2023-03-29T03:26:45.503Z,98932.55
2023-03-29T03:27:55.098Z,98946.02
2023-03-29T03:29:05.321Z,98942.06
2023-03-29T03:31:53.797Z,98931.38
2023-03-29T03:34:36.953Z,98929.97
2023-03-29T03:37:05.442Z,98948.64
2023-03-29T03:39:33.288Z,98953.79
2023-03-29T03:41:59.206Z,98961.39
2023-03-29T03:44:25.641Z,98961.19
2023-03-29T03:46:56.892Z,98955.83
2023-03-29T03:49:22.305Z,98955.41
2023-03-29T03:50:32.579Z,98959.23
2023-03-29T03:51:44.234Z,98969.22
2023-03-29T03:52:53.219Z,98967.99
2023-03-29T03:54:04.064Z,98959.14
2023-03-29T03:56:31.554Z,98969.90
2023-03-29T03:57:48.019Z,98968.48
2023-03-29T04:00:20.618Z,98970.33
2023-03-29T04:03:05.372Z,98965.33
2023-03-29T04:04:16.813Z,98983.94
2023-03-29T04:07:03.461Z,98985.05
2023-03-29T04:09:31.759Z,98996.27
2023-03-29T04:11:31.662Z,99006.20
2023-03-29T04:12:41.250Z,99013.87
2023-03-29T04:13:50.611Z,99012.30
2023-03-29T04:16:58.184Z,99005.09
2023-03-29T04:20:14.839Z,99029.84
2023-03-29T04:22:59.094Z,99021.62
2023-03-29T04:24:09.309Z,99032.45
2023-03-29T04:25:21.858Z,99033.80
2023-03-29T04:27:50.823Z,99028.84
2023-03-29T04:30:58.575Z,99038.52
2023-03-29T04:32:56.723Z,99039.74
2023-03-29T04:35:23.926Z,99038.32
2023-03-29T04:36:32.714Z,99033.30
2023-03-29T04:39:00.186Z,99036.52
2023-03-29T04:41:30.615Z,99031.23
2023-03-29T04:42:46.310Z,99044.45
2023-03-29T04:43:56.138Z,99045.34
2023-03-29T04:45:10.408Z,99044.19
2023-03-29T04:47:42.969Z,99063.55
2023-03-29T04:48:53.718Z,99029.09
2023-03-29T04:50:07.474Z,99051.19
2023-03-29T04:51:22.259Z,99053.53
2023-03-29T04:53:57.534Z,99055.39
2023-03-29T04:56:27.109Z,99052.47
2023-03-29T04:59:26.782Z,99045.69
2023-03-29T05:00:42.377Z,99070.28
2023-03-29T05:03:12.181Z,99054.81
2023-03-29T05:04:22.841Z,99056.03
2023-03-29T05:06:49.610Z,99071.69
2023-03-29T05:09:13.330Z,99061.75
2023-03-29T05:11:42.578Z,99070.84
2023-03-29T05:14:09.428Z,99066.05
2023-03-29T05:15:21.241Z,99075.55
2023-03-29T05:17:46.735Z,99084.87
2023-03-29T05:20:18.101Z,99085.71
2023-03-29T05:22:43.160Z,99077.70
2023-03-29T05:25:14.196Z,99074.33
2023-03-29T05:27:42.442Z,99079.50
2023-03-29T05:30:10.062Z,99068.57
2023-03-29T05:33:03.151Z,99069.49
2023-03-29T05:35:29.631Z,99077.35
2023-03-29T05:37:56.258Z,99074.70
2023-03-29T05:40:25.640Z,99076.93
2023-03-29T05:42:53.226Z,99088.44
2023-03-29T05:45:17.618Z,99087.13
2023-03-29T05:46:27.377Z,99090.08
2023-03-29T05:47:38.826Z,99095.72
2023-03-29T05:48:47.461Z,99084.56
2023-03-29T05:51:14.289Z,99091.92
2023-03-29T05:52:24.449Z,99088.16
2023-03-29T05:54:48.802Z,99085.14
2023-03-29T05:57:13.562Z,99078.92
2023-03-29T05:59:41.169Z,99089.43
2023-03-29T06:02:06.572Z,99106.72
2023-03-29T06:04:38.260Z,99098.59
2023-03-29T06:06:10.256Z,99113.44
2023-03-29T06:07:19.271Z,99115.67
2023-03-29T06:09:47.310Z,99120.03
2023-03-29T06:12:21.555Z,99125.52
2023-03-29T06:13:38.353Z,99127.97
2023-03-29T06:14:48.370Z,99126.15
2023-03-29T06:17:40.595Z,99125.23
2023-03-29T06:18:52.179Z,99133.68
2023-03-29T06:20:02.019Z,99128.50
2023-03-29T06:22:28.107Z,99126.11
2023-03-29T06:23:37.257Z,99134.23
2023-03-29T06:24:46.612Z,99143.70
2023-03-29T06:25:59.586Z,99140.47
2023-03-29T06:27:10.764Z,99141.69
2023-03-29T06:28:21.532Z,99145.25
2023-03-29T06:29:31.599Z,99144.19
2023-03-29T06:30:43.274Z,99146.83
2023-03-29T06:31:56.652Z,99143.38
2023-03-29T06:33:14.744Z,99158.19
2023-03-29T06:35:49.239Z,99160.13
2023-03-29T06:37:01.343Z,99148.12
2023-03-29T06:38:10.729Z,99159.43
2023-03-29T06:41:25.390Z,99162.44
2023-03-29T06:43:55.038Z,99169.38
2023-03-29T06:47:32.340Z,99173.94
2023-03-29T06:48:41.137Z,99169.64
2023-03-29T06:51:06.940Z,99195.19
2023-03-29T06:52:16.799Z,99188.31
2023-03-29T06:53:28.162Z,99189.97
2023-03-29T06:54:39.193Z,99183.68
2023-03-29T06:57:05.984Z,99186.84
2023-03-29T06:58:17.049Z,99201.06
2023-03-29T07:00:41.732Z,99190.25
2023-03-29T07:42:04.488Z,99270.67
2023-03-29T07:43:14.311Z,99272.88
2023-03-29T07:44:23.244Z,99283.69
2023-03-29T07:45:36.315Z,99271.23
2023-03-29T07:48:06.923Z,99280.79
2023-03-29T07:50:46.648Z,99277.52
2023-03-29T07:53:12.115Z,99281.38
2023-03-29T07:55:36.187Z,99286.88
2023-03-29T07:57:31.261Z,99286.74
2023-03-29T07:59:56.118Z,99290.97
2023-03-29T08:01:08.365Z,99298.80
2023-03-29T08:04:23.041Z,99293.03
2023-03-29T08:05:52.066Z,99291.41
2023-03-29T08:08:17.859Z,99295.83
2023-03-29T08:10:50.370Z,99307.19
2023-03-29T08:12:19.250Z,99305.75
2023-03-29T08:13:30.261Z,99305.46
2023-03-29T08:16:13.180Z,99315.87
2023-03-29T08:18:40.992Z,99310.87
2023-03-29T08:21:07.002Z,99314.44
2023-03-29T08:23:31.591Z,99325.39
2023-03-29T08:24:50.902Z,99323.66
2023-03-29T08:27:17.155Z,99322.38
2023-03-29T08:29:41.580Z,99332.72
2023-03-29T08:32:06.714Z,99335.91
2023-03-29T08:33:27.558Z,99331.91
2023-03-29T08:34:38.100Z,99341.51
2023-03-29T08:36:07.976Z,99346.80
2023-03-29T08:37:19.589Z,99340.55
2023-03-29T08:39:45.796Z,99341.22
2023-03-29T08:43:13.915Z,99336.36
2023-03-29T08:46:37.339Z,99345.88
2023-03-29T08:49:26.679Z,99354.53
2023-03-29T08:52:04.114Z,99350.11
2023-03-29T08:54:43.095Z,99345.00
2023-03-29T08:55:55.828Z,99351.14
2023-03-29T08:59:28.585Z,99348.09
2023-03-29T09:02:04.040Z,99335.77
2023-03-29T09:04:52.931Z,99353.69
2023-03-29T09:07:56.658Z,99356.47
2023-03-29T09:09:11.895Z,99365.02
2023-03-29T09:10:28.624Z,99366.70
2023-03-29T09:11:44.262Z,99365.78
2023-03-29T09:16:30.684Z,99353.63
2023-03-29T09:19:23.228Z,99367.66
2023-03-29T09:22:21.950Z,99373.40
2023-03-29T09:23:55.884Z,99365.27
2023-03-29T09:26:53.156Z,99368.29
2023-03-29T09:29:45.390Z,99376.53
2023-03-29T09:33:50.647Z,99389.70
2023-03-29T09:36:46.804Z,99393.56
2023-03-29T09:39:14.534Z,99401.33
2023-03-29T09:42:03.585Z,99398.31
2023-03-29T09:44:54.330Z,99413.06
2023-03-29T09:47:50.553Z,99412.14
2023-03-29T09:50:30.740Z,99407.98
2023-03-29T09:54:18.954Z,99421.23
2023-03-29T09:55:50.329Z,99429.87
2023-03-29T09:57:21.803Z,99440.55
2023-03-29T09:58:31.109Z,99442.20
2023-03-29T09:59:41.418Z,99440.77
2023-03-29T10:02:13.453Z,99441.77
2023-03-29T10:04:42.584Z,99430.11
2023-03-29T10:05:56.537Z,99435.84
2023-03-29T10:07:08.271Z,99447.36
2023-03-29T10:09:47.574Z,99449.72
2023-03-29T10:12:17.227Z,99448.55
2023-03-29T10:14:54.026Z,99443.28
2023-03-29T10:17:26.493Z,99453.55
2023-03-29T10:18:43.179Z,99455.61
2023-03-29T10:21:15.236Z,99441.81
2023-03-29T10:22:27.163Z,99451.67
2023-03-29T10:23:38.176Z,99460.21
2023-03-29T10:24:52.968Z,99459.16
2023-03-29T10:27:31.152Z,99465.00
2023-03-29T10:29:58.300Z,99454.47
2023-03-29T10:32:35.593Z,99457.02
2023-03-29T10:35:14.304Z,99458.08
2023-03-29T10:36:27.058Z,99466.14
2023-03-29T10:39:06.267Z,99471.89
2023-03-29T10:41:53.660Z,99476.64
2023-03-29T10:44:36.440Z,99475.05
2023-03-29T10:45:52.082Z,99489.52
2023-03-29T10:48:28.871Z,99488.67
2023-03-29T10:51:02.283Z,99477.03
2023-03-29T10:53:33.585Z,99492.19
2023-03-29T10:56:22.899Z,99495.58
2023-03-29T10:59:24.995Z,99493.14
2023-03-29T11:02:19.029Z,99497.83
2023-03-29T11:03:50.533Z,99496.36
2023-03-29T11:05:27.108Z,99500.59
2023-03-29T11:08:20.177Z,99492.17
2023-03-29T11:12:59.897Z,99490.14
2023-03-29T11:16:16.670Z,99499.08
2023-03-29T11:17:54.528Z,99493.98
2023-03-29T11:20:36.386Z,99502.11
2023-03-29T11:23:28.823Z,99502.56
2023-03-29T11:24:53.239Z,99495.36
2023-03-29T11:27:50.613Z,99497.47
2023-03-29T11:30:50.997Z,99497.61
2023-03-29T11:32:36.298Z,99501.59
2023-03-29T11:37:00.932Z,99503.06
2023-03-29T11:40:05.078Z,99506.41
2023-03-29T11:41:18.202Z,99500.66
2023-03-29T11:43:55.376Z,99491.10
2023-03-29T11:45:08.218Z,99500.48
2023-03-29T11:47:48.062Z,99507.23
2023-03-29T11:50:42.111Z,99510.47
2023-03-29T11:52:01.137Z,99514.30
2023-03-29T11:53:14.324Z,99517.54
2023-03-29T11:55:56.449Z,99513.42
2023-03-29T11:58:32.120Z,99504.14
2023-03-29T11:59:44.867Z,99518.42
2023-03-29T12:02:20.643Z,99505.73
2023-03-29T12:05:02.570Z,99516.77
2023-03-29T12:06:41.876Z,99511.19
2023-03-29T12:07:57.277Z,99529.95
2023-03-29T12:09:19.082Z,99523.06
2023-03-29T12:10:40.210Z,99529.28
2023-03-29T12:11:51.571Z,99530.88
2023-03-29T12:15:05.515Z,99525.58
2023-03-29T12:16:33.487Z,99528.16
2023-03-29T12:18:04.943Z,99521.72
2023-03-29T12:21:05.248Z,99530.72
2023-03-29T12:22:16.275Z,99542.39
2023-03-29T12:23:29.456Z,99528.95
2023-03-29T12:28:03.858Z,99533.05
2023-03-29T12:30:41.881Z,99526.23
2023-03-29T12:33:36.921Z,99537.50
2023-03-29T12:37:01.854Z,99528.80
2023-03-29T12:39:53.433Z,99536.41
2023-03-29T12:42:57.218Z,99542.52
2023-03-29T12:46:27.011Z,99553.56
2023-03-29T12:49:01.936Z,99544.31
2023-03-29T12:51:56.130Z,99557.50
2023-03-29T12:53:27.240Z,99564.13
2023-03-29T12:54:36.995Z,99558.04
2023-03-29T12:56:11.148Z,99573.03
2023-03-29T12:57:24.179Z,99569.84
2023-03-29T12:58:42.419Z,99581.30
2023-03-29T13:01:30.449Z,99564.64
2023-03-29T13:02:41.670Z,99571.16
2023-03-29T13:05:34.484Z,99570.47
2023-03-29T13:08:30.435Z,99568.73
2023-03-29T13:10:01.760Z,99566.91
2023-03-29T13:12:54.564Z,99567.11
2023-03-29T13:15:26.033Z,99574.62
2023-03-29T13:18:00.712Z,99576.77
2023-03-29T13:20:37.350Z,99583.13
2023-03-29T13:23:31.768Z,99595.40
2023-03-29T13:26:09.991Z,99597.38
2023-03-29T13:27:42.851Z,99594.73
2023-03-29T13:29:11.189Z,99609.08
2023-03-29T13:32:23.644Z,99595.92
2023-03-29T13:35:38.484Z,99610.98
2023-03-29T13:38:24.965Z,99613.42
2023-03-29T13:41:08.121Z,99630.85
2023-03-29T13:42:21.284Z,99628.48
2023-03-29T13:44:54.543Z,99634.17
2023-03-29T13:47:30.077Z,99650.02
2023-03-29T13:50:02.024Z,99653.19
2023-03-29T13:52:40.311Z,99656.59
2023-03-29T13:55:27.715Z,99656.17
2023-03-29T13:58:08.619Z,99662.36
2023-03-29T14:00:53.471Z,99662.95
2023-03-29T14:03:25.362Z,99672.90
2023-03-29T14:06:00.247Z,99674.95
2023-03-29T14:07:13.796Z,99678.00
2023-03-29T14:08:33.338Z,99685.17
2023-03-29T14:11:03.931Z,99689.20
2023-03-29T14:12:15.228Z,99700.28
2023-03-29T14:13:26.004Z,99694.64
2023-03-29T14:14:38.688Z,99691.67
2023-03-29T14:15:56.943Z,99692.25
2023-03-29T14:18:25.797Z,99689.73
2023-03-29T14:20:55.629Z,99699.43
2023-03-29T14:23:33.038Z,99695.33
2023-03-29T14:26:18.507Z,99704.80
2023-03-29T14:28:50.150Z,99704.06
2023-03-29T14:29:59.624Z,99716.11
2023-03-29T14:31:21.704Z,99707.31
2023-03-29T14:32:32.644Z,99716.86
2023-03-29T14:33:42.006Z,99710.48
2023-03-29T14:36:11.635Z,99719.78
2023-03-29T14:38:40.724Z,99723.97
2023-03-29T14:41:06.903Z,99721.95
2023-03-29T14:42:23.026Z,99731.98
2023-03-29T14:43:35.850Z,99725.67
2023-03-29T14:46:03.634Z,99731.85
2023-03-29T14:48:37.542Z,99722.70
2023-03-29T14:51:03.601Z,99728.68
2023-03-29T14:52:15.268Z,99736.17
2023-03-29T14:53:26.344Z,99737.84
2023-03-29T14:55:56.050Z,99732.46
2023-03-29T15:01:21.805Z,99750.96
2023-03-29T15:04:08.550Z,99745.31
2023-03-29T15:05:39.621Z,99750.14
2023-03-29T15:08:31.735Z,99751.03
2023-03-29T15:10:56.194Z,99751.88
2023-03-29T15:12:05.377Z,99759.30
2023-03-29T15:14:40.293Z,99750.89
2023-03-29T15:17:42.629Z,99760.52
2023-03-29T15:20:04.293Z,99765.00
2023-03-29T15:22:32.880Z,99765.28
2023-03-29T15:25:17.829Z,99769.45
2023-03-29T15:27:51.961Z,99762.04
2023-03-29T15:30:30.938Z,99776.36
2023-03-29T15:31:42.584Z,99779.66
2023-03-29T15:32:53.426Z,99776.46
2023-03-29T15:34:09.291Z,99777.11
2023-03-29T15:35:24.581Z,99781.44
2023-03-29T15:37:52.909Z,99790.75
2023-03-29T15:39:01.788Z,99799.93
2023-03-29T15:41:32.540Z,99796.13
2023-03-29T15:43:57.974Z,99795.37
2023-03-29T15:46:25.006Z,99799.90
2023-03-29T15:47:34.741Z,99798.66
2023-03-29T15:48:43.446Z,99797.06
2023-03-29T15:51:10.996Z,99802.48
2023-03-29T15:53:38.082Z,99814.69
2023-03-29T15:56:04.811Z,99815.34
2023-03-29T15:58:33.526Z,99805.55
2023-03-29T16:01:03.183Z,99813.30
2023-03-29T16:03:30.924Z,99822.45
2023-03-29T16:06:02.058Z,99822.31
2023-03-29T16:07:17.273Z,99823.70
2023-03-29T16:08:26.955Z,99825.30
2023-03-29T16:09:37.592Z,99830.47
2023-03-29T16:12:03.882Z,99830.82
2023-03-29T16:14:30.996Z,99826.33
2023-03-29T16:16:59.844Z,99833.74
2023-03-29T16:18:10.898Z,99840.66
2023-03-29T16:20:38.814Z,99831.72
2023-03-29T16:21:49.601Z,99835.52
2023-03-29T16:22:58.060Z,99831.17
2023-03-29T16:24:13.197Z,99833.07
2023-03-29T16:26:38.591Z,99829.98
2023-03-29T16:29:03.189Z,99837.12
2023-03-29T16:31:28.892Z,99843.31
2023-03-29T16:32:38.814Z,99839.36
2023-03-29T16:35:03.901Z,99832.94
2023-03-29T16:37:29.158Z,99831.17
2023-03-29T16:38:38.702Z,99838.67
2023-03-29T16:41:04.191Z,99836.21
2023-03-29T16:42:13.986Z,99840.95
2023-03-29T16:43:22.825Z,99852.31
2023-03-29T16:45:46.606Z,99837.69
2023-03-29T16:48:17.799Z,99854.70
2023-03-29T16:50:41.362Z,99852.05
2023-03-29T16:51:51.201Z,99857.77
2023-03-29T16:54:16.889Z,99865.25
2023-03-29T16:56:41.065Z,99868.03
2023-03-29T16:59:05.900Z,99873.14
2023-03-29T17:01:36.933Z,99875.98
2023-03-29T17:04:04.204Z,99880.56
2023-03-29T17:06:28.521Z,99882.52
2023-03-29T17:08:53.802Z,99884.13
2023-03-29T17:10:06.969Z,99885.64
2023-03-29T17:12:32.055Z,99890.28
2023-03-29T17:14:57.256Z,99879.61
2023-03-29T17:16:07.354Z,99895.14
2023-03-29T17:18:33.085Z,99891.38
2023-03-29T17:19:42.614Z,99893.46
2023-03-29T17:20:54.945Z,99890.11
2023-03-29T17:23:19.701Z,99895.52
2023-03-29T17:24:28.969Z,99900.90
2023-03-29T17:26:59.401Z,99902.11
2023-03-29T17:28:08.201Z,99909.55
2023-03-29T17:30:35.679Z,99902.30
2023-03-29T17:31:48.045Z,99908.66
2023-03-29T17:34:17.532Z,99904.89
2023-03-29T17:36:41.308Z,99903.88
2023-03-29T17:37:50.913Z,99906.02
2023-03-29T17:40:17.449Z,99906.31
2023-03-29T17:42:44.391Z,99908.91
2023-03-29T17:45:11.824Z,99915.05
2023-03-29T17:47:39.088Z,99916.28
2023-03-29T17:50:08.222Z,99922.98
2023-03-29T17:51:18.647Z,99917.95
2023-03-29T17:53:43.220Z,99913.98
2023-03-29T17:56:08.163Z,99928.22
2023-03-29T17:57:17.223Z,99928.68
2023-03-29T17:59:41.229Z,99933.73
2023-03-29T18:02:05.640Z,99936.96
2023-03-29T18:04:29.754Z,99937.94
2023-03-29T18:05:38.486Z,99950.63
2023-03-29T18:06:49.348Z,99951.38
2023-03-29T18:07:59.148Z,99952.36
2023-03-29T18:10:25.866Z,99953.78
2023-03-29T18:12:53.813Z,99954.73
2023-03-29T18:15:20.343Z,99948.48
2023-03-29T18:17:45.409Z,99957.02
2023-03-29T18:20:12.204Z,99962.96
2023-03-29T18:21:22.673Z,99981.82
2023-03-29T18:23:51.224Z,99978.66
2023-03-29T18:26:16.420Z,99974.27
2023-03-29T18:28:47.664Z,99966.07
2023-03-29T18:29:59.169Z,99973.62
2023-03-29T18:31:08.094Z,99974.33
2023-03-29T18:33:36.667Z,99972.20
2023-03-29T18:34:46.710Z,99976.16
2023-03-29T18:37:14.069Z,99978.53
2023-03-29T18:38:22.739Z,99973.56
2023-03-29T18:40:50.087Z,99967.23
2023-03-29T18:43:14.770Z,99974.42
2023-03-29T18:46:00.567Z,99985.53
2023-03-29T18:48:25.082Z,99986.05
2023-03-29T18:50:50.838Z,99985.20
2023-03-29T18:53:16.999Z,99982.80
2023-03-29T18:54:25.992Z,99992.80
2023-03-29T18:55:35.190Z,99990.04
2023-03-29T18:58:05.433Z,99993.09
2023-03-29T19:00:29.568Z,99978.34
2023-03-29T19:02:54.319Z,99983.91
2023-03-29T19:04:04.280Z,99993.01
2023-03-29T19:05:13.381Z,99989.77
2023-03-29T19:07:38.251Z,99989.62
2023-03-29T19:10:04.299Z,99990.71
2023-03-29T19:11:15.884Z,99983.93
2023-03-29T19:12:24.822Z,99985.55
2023-03-29T19:13:35.553Z,99982.84
2023-03-29T19:14:44.407Z,99986.15
2023-03-29T19:15:54.209Z,99992.27
2023-03-29T19:17:03.412Z,100000.30
2023-03-29T19:18:12.361Z,99980.11
2023-03-29T19:19:23.729Z,99982.64
2023-03-29T19:21:50.678Z,99978.00
2023-03-29T19:24:15.153Z,99986.68
2023-03-29T19:26:40.611Z,99983.17
2023-03-29T19:27:50.193Z,99986.20
2023-03-29T19:29:00.486Z,99994.03
2023-03-29T19:31:27.966Z,99992.41
2023-03-29T19:33:51.878Z,99994.98
2023-03-29T19:36:16.971Z,99998.48
2023-03-29T19:38:43.209Z,100005.29
2023-03-29T19:41:10.662Z,100001.55
2023-03-29T19:43:37.527Z,100007.50
2023-03-29T19:46:10.213Z,100012.74
2023-03-29T19:48:34.388Z,100003.88
2023-03-29T19:49:45.705Z,100013.41
2023-03-29T19:50:55.475Z,100009.03
2023-03-29T19:53:20.647Z,100014.54
2023-03-29T19:54:30.135Z,100015.52
2023-03-29T19:55:39.920Z,100018.31
2023-03-29T19:58:06.666Z,100016.54
2023-03-29T20:00:32.822Z,100019.13
2023-03-29T20:02:59.380Z,100025.81
2023-03-29T20:04:08.941Z,100015.95
2023-03-29T20:06:33.348Z,100022.88
2023-03-29T20:08:59.169Z,100026.72
2023-03-29T20:11:24.563Z,100017.69
2023-03-29T20:12:33.304Z,100022.50
2023-03-29T20:13:44.772Z,100020.88
2023-03-29T20:14:53.950Z,100018.17
2023-03-29T20:16:03.158Z,100023.41
2023-03-29T20:18:27.805Z,100010.53
2023-03-29T20:20:52.677Z,100030.82
2023-03-29T20:22:02.226Z,100031.05
2023-03-29T20:24:27.795Z,100031.53
2023-03-29T20:26:52.566Z,100031.61
2023-03-29T20:28:02.172Z,100046.98
2023-03-29T20:30:26.611Z,100038.28
2023-03-29T20:31:35.438Z,100040.22
2023-03-29T20:34:00.678Z,100034.55
2023-03-29T20:36:28.820Z,100038.89
2023-03-29T20:38:56.680Z,100044.02
2023-03-29T20:40:08.573Z,100045.27
2023-03-29T20:41:19.221Z,100043.47
2023-03-29T20:43:47.768Z,100039.54
2023-03-29T20:46:24.514Z,100043.84
2023-03-29T20:47:36.480Z,100046.89
2023-03-29T20:48:55.494Z,100051.25
2023-03-29T20:50:09.113Z,100049.48
2023-03-29T20:52:36.014Z,100047.63
2023-03-29T20:55:02.329Z,100047.98
2023-03-29T20:56:12.822Z,100050.27
2023-03-29T20:58:38.939Z,100047.45
2023-03-29T21:01:12.851Z,100045.03
2023-03-29T21:03:40.147Z,100047.92
2023-03-29T21:06:09.074Z,100049.72
2023-03-29T21:07:20.133Z,100052.61
2023-03-29T21:08:30.643Z,100060.48
2023-03-29T21:10:57.932Z,100050.57
2023-03-29T21:13:22.714Z,100051.57
2023-03-29T21:14:32.875Z,100060.56
2023-03-29T21:17:00.068Z,100057.05
2023-03-29T21:18:09.136Z,100061.69
2023-03-29T21:19:18.720Z,100056.38
2023-03-29T21:21:44.810Z,100052.42
2023-03-29T21:22:53.398Z,100065.91
2023-03-29T21:25:18.737Z,100058.44
2023-03-29T21:26:28.406Z,100059.59
2023-03-29T21:27:38.093Z,100066.69
2023-03-29T21:28:48.544Z,100070.19
2023-03-29T21:31:13.403Z,100057.45
2023-03-29T21:32:22.092Z,100066.58
2023-03-29T21:33:31.222Z,100063.98
2023-03-29T21:36:16.144Z,100059.23
2023-03-29T21:37:26.896Z,100054.46
2023-03-29T21:38:37.316Z,100055.23
2023-03-29T21:41:03.698Z,100055.81
2023-03-29T21:43:29.104Z,100055.07
2023-03-29T21:45:53.427Z,100057.67
2023-03-29T21:47:02.205Z,100059.92
2023-03-29T21:48:11.544Z,100060.94
2023-03-29T21:50:36.805Z,100055.64
2023-03-29T21:51:47.026Z,100054.24
2023-03-29T21:52:55.739Z,100063.04
2023-03-29T21:54:05.986Z,100057.72
2023-03-29T21:56:30.342Z,100056.84
2023-03-29T21:58:56.888Z,100061.28
2023-03-29T22:00:10.537Z,100059.75
2023-03-29T22:02:35.139Z,100063.20
2023-03-29T22:05:07.642Z,100066.75
2023-03-29T22:06:18.992Z,100071.42
2023-03-29T22:07:28.174Z,100069.71
2023-03-29T22:09:58.791Z,100069.22
2023-03-29T22:12:29.733Z,100078.35
2023-03-29T22:14:53.313Z,100063.92
2023-03-29T22:17:19.189Z,100066.41
2023-03-29T22:19:49.201Z,100073.55
2023-03-29T22:22:14.386Z,100073.68
2023-03-29T22:24:42.759Z,100069.40
2023-03-29T22:27:07.750Z,100072.05
2023-03-29T22:28:16.473Z,100080.30
2023-03-29T22:30:40.880Z,100075.08
2023-03-29T22:33:05.312Z,100072.43
2023-03-29T22:34:13.999Z,100075.34
2023-03-29T22:35:23.230Z,100081.48
2023-03-29T22:36:33.705Z,100075.34
2023-03-29T22:39:00.805Z,100074.43
2023-03-29T22:41:27.929Z,100077.78
2023-03-29T22:42:37.620Z,100086.83
2023-03-29T22:43:48.270Z,100090.36
2023-03-29T22:46:14.417Z,100081.16
2023-03-29T22:47:35.718Z,100086.77
2023-03-29T22:50:02.090Z,100073.16
2023-03-29T22:51:10.952Z,100082.31
2023-03-29T22:52:20.405Z,100080.63
2023-03-29T22:53:29.111Z,100078.77
2023-03-29T22:55:55.984Z,100069.99
2023-03-29T22:58:21.958Z,100076.92
2023-03-29T22:59:30.770Z,100079.89
2023-03-29T23:00:40.329Z,100079.89
2023-03-29T23:03:06.061Z,100070.84
2023-03-29T23:05:30.852Z,100061.25
2023-03-29T23:07:56.498Z,100076.06
2023-03-29T23:10:22.273Z,100071.83
2023-03-29T23:11:32.004Z,100075.61
2023-03-29T23:12:43.445Z,100082.00
2023-03-29T23:13:53.183Z,100077.45
2023-03-29T23:16:21.648Z,100076.45
2023-03-29T23:18:47.583Z,100081.73
2023-03-29T23:19:56.505Z,100082.11
2023-03-29T23:22:22.074Z,100083.42
2023-03-29T23:23:32.291Z,100090.78
2023-03-29T23:24:43.277Z,100091.53
2023-03-29T23:25:53.768Z,100088.89
2023-03-29T23:28:25.193Z,100083.27
2023-03-29T23:31:00.413Z,100089.38
2023-03-29T23:32:11.684Z,100101.16
2023-03-29T23:33:21.939Z,100100.36
2023-03-29T23:34:33.671Z,100095.08
2023-03-29T23:35:43.586Z,100104.61
2023-03-29T23:36:53.317Z,100097.56
2023-03-29T23:39:17.720Z,100104.34
2023-03-29T23:41:42.985Z,100105.25
2023-03-29T23:44:11.400Z,100104.24
2023-03-29T23:45:20.028Z,100105.45
2023-03-29T23:46:29.705Z,100106.36
2023-03-29T23:48:55.226Z,100103.23
2023-03-29T23:51:23.015Z,100096.98
2023-03-29T23:52:34.808Z,100107.09
2023-03-29T23:53:43.856Z,100098.31
2023-03-29T23:54:53.103Z,100096.66
2023-03-29T23:56:05.258Z,100093.23
2023-03-29T23:58:33.804Z,100087.56
2023-03-29T23:59:43.664Z,100092.17
